createdAt,value
2022-10-19T00:02:23.270Z,5.32
2022-10-19T00:04:49.986Z,6.57
2022-10-19T00:07:16.699Z,6.07
2022-10-19T00:09:44.318Z,5.20
2022-10-19T00:12:12.504Z,4.80
2022-10-19T00:14:39.508Z,5.38
2022-10-19T00:17:08.558Z,5.10
2022-10-19T00:19:35.252Z,5.72
2022-10-19T00:22:01.968Z,6.50
2022-10-19T00:24:28.727Z,6.13
2022-10-19T00:26:55.464Z,6.00
2022-10-19T00:29:22.453Z,5.65
2022-10-19T00:31:50.632Z,6.15
2022-10-19T00:34:17.819Z,6.18
2022-10-19T00:36:44.624Z,6.20
2022-10-19T00:39:14.076Z,6.45
2022-10-19T00:41:41.371Z,6.32
2022-10-19T00:44:15.973Z,5.90
2022-10-19T00:46:45.207Z,6.15
2022-10-19T00:49:19.517Z,6.03
2022-10-19T00:52:07.484Z,6.88
2022-10-19T00:54:38.150Z,6.43
2022-10-19T00:57:06.656Z,5.82
2022-10-19T00:59:34.323Z,6.50
2022-10-19T01:02:03.616Z,5.68
2022-10-19T01:04:32.662Z,7.57
2022-10-19T01:07:00.193Z,5.90
2022-10-19T01:09:26.913Z,6.35
2022-10-19T01:12:03.616Z,6.78
2022-10-19T01:14:55.348Z,5.70
2022-10-19T01:17:55.458Z,5.57
2022-10-19T01:20:41.030Z,5.72
2022-10-19T01:23:26.388Z,6.40
2022-10-19T01:25:56.193Z,6.35
2022-10-19T01:28:44.342Z,6.00
2022-10-19T01:31:41.808Z,5.40
2022-10-19T01:34:32.048Z,5.30
2022-10-19T01:37:07.668Z,6.10
2022-10-19T01:39:37.405Z,5.97
2022-10-19T01:42:40.559Z,5.45
2022-10-19T01:45:07.471Z,6.13
2022-10-19T01:47:43.172Z,5.68
2022-10-19T01:51:01.807Z,6.40
2022-10-19T01:53:33.158Z,5.38
2022-10-19T01:56:01.963Z,5.57
2022-10-19T01:58:33.552Z,5.22
2022-10-19T02:01:04.738Z,5.88
2022-10-19T02:03:33.183Z,5.97
2022-10-19T02:06:02.560Z,6.07
2022-10-19T02:08:34.773Z,5.38
2022-10-19T02:11:03.020Z,5.82
2022-10-19T02:13:30.680Z,5.97
2022-10-19T02:16:01.327Z,6.10
2022-10-19T02:18:33.249Z,6.35
2022-10-19T02:21:03.347Z,6.57
2022-10-19T02:23:30.362Z,5.93
2022-10-19T02:25:57.669Z,5.53
2022-10-19T02:30:58.375Z,6.57
2022-10-19T02:33:25.796Z,6.15
2022-10-19T02:35:52.586Z,6.63
2022-10-19T02:38:22.744Z,5.90
2022-10-19T02:41:12.721Z,6.35
2022-10-19T02:43:42.717Z,6.40
2022-10-19T02:46:30.466Z,8.30
2022-10-19T02:48:58.092Z,7.80
2022-10-19T02:51:33.843Z,6.88
2022-10-19T02:54:04.132Z,6.80
2022-10-19T02:56:32.364Z,7.05
2022-10-19T02:58:59.161Z,6.63
2022-10-19T03:01:26.024Z,6.15
2022-10-19T03:03:52.889Z,5.53
2022-10-19T03:06:19.856Z,5.65
2022-10-19T03:08:46.630Z,5.25
2022-10-19T03:11:13.385Z,6.22
2022-10-19T03:13:42.016Z,5.60
2022-10-19T03:16:11.113Z,5.75
2022-10-19T03:18:37.855Z,5.07
2022-10-19T03:21:06.936Z,5.35
2022-10-19T03:23:34.328Z,5.97
2022-10-19T03:26:01.167Z,5.18
2022-10-19T03:28:28.140Z,5.28
2022-10-19T03:30:55.005Z,4.53
2022-10-19T03:33:21.800Z,5.00
2022-10-19T03:35:48.631Z,5.40
2022-10-19T03:38:15.336Z,4.32
2022-10-19T03:40:42.182Z,5.50
2022-10-19T03:43:08.963Z,4.97
2022-10-19T03:45:35.632Z,5.28
2022-10-19T03:48:02.370Z,5.63
2022-10-19T03:50:29.099Z,6.80
2022-10-19T03:52:55.817Z,5.95
2022-10-19T03:55:22.625Z,7.18
2022-10-19T03:57:49.378Z,5.90
2022-10-19T04:00:16.309Z,5.72
2022-10-19T04:02:42.993Z,5.60
2022-10-19T04:05:09.731Z,4.93
2022-10-19T04:07:36.511Z,5.90
2022-10-19T04:10:03.538Z,5.10
2022-10-19T04:12:30.259Z,4.88
2022-10-19T04:14:57.804Z,4.80
2022-10-19T04:17:25.601Z,4.60
2022-10-19T04:19:52.322Z,4.25
2022-10-19T04:22:18.962Z,4.82
2022-10-19T04:24:45.693Z,5.40
2022-10-19T04:27:12.429Z,4.70
2022-10-19T04:29:39.101Z,4.55
2022-10-19T04:32:05.987Z,4.97
2022-10-19T04:34:35.212Z,4.57
2022-10-19T04:37:04.456Z,4.82
2022-10-19T04:39:31.124Z,5.13
2022-10-19T04:41:57.879Z,5.43
2022-10-19T04:46:56.135Z,4.63
2022-10-19T04:49:22.927Z,4.97
2022-10-19T04:51:49.596Z,4.80
2022-10-19T04:54:16.282Z,4.85
2022-10-19T04:56:43.050Z,4.90
2022-10-19T04:59:12.935Z,5.72
2022-10-19T05:01:46.255Z,5.07
2022-10-19T05:04:14.160Z,4.72
2022-10-19T05:06:40.859Z,4.68
2022-10-19T05:09:07.759Z,4.50
2022-10-19T05:11:34.491Z,4.78
2022-10-19T05:14:01.192Z,4.22
2022-10-19T05:16:27.925Z,5.53
2022-10-19T05:18:58.577Z,4.70
2022-10-19T05:21:27.589Z,5.63
2022-10-19T05:23:56.228Z,4.32
2022-10-19T05:26:25.062Z,5.18
2022-10-19T05:28:57.909Z,7.80
2022-10-19T05:31:27.096Z,5.78
2022-10-19T05:33:54.098Z,5.07
2022-10-19T05:36:20.850Z,5.57
2022-10-19T05:38:49.635Z,5.00
2022-10-19T05:41:17.300Z,5.45
2022-10-19T05:43:44.530Z,5.95
2022-10-19T05:46:14.595Z,5.22
2022-10-19T05:48:41.426Z,6.03
2022-10-19T05:51:12.887Z,5.78
2022-10-19T05:53:40.161Z,5.55
2022-10-19T05:56:09.027Z,5.97
2022-10-19T05:58:36.094Z,6.22
2022-10-19T06:01:03.313Z,5.57
2022-10-19T06:03:30.426Z,5.43
2022-10-19T06:05:57.718Z,6.18
2022-10-19T06:08:25.025Z,7.45
2022-10-19T06:10:51.769Z,5.88
2022-10-19T06:13:19.795Z,6.18
2022-10-19T06:15:50.998Z,6.20
2022-10-19T06:18:17.930Z,5.80
2022-10-19T06:20:44.642Z,5.32
2022-10-19T06:23:11.325Z,5.70
2022-10-19T06:25:38.324Z,5.80
2022-10-19T06:28:05.710Z,5.97
2022-10-19T06:30:32.540Z,5.75
2022-10-19T06:32:59.868Z,7.30
2022-10-19T06:35:26.795Z,6.88
2022-10-19T06:37:56.919Z,6.43
2022-10-19T06:40:24.859Z,6.07
2022-10-19T06:42:51.799Z,5.97
2022-10-19T06:45:18.667Z,7.20
2022-10-19T06:47:45.333Z,6.78
2022-10-19T06:50:12.491Z,6.38
2022-10-19T06:52:40.836Z,6.72
2022-10-19T06:55:08.135Z,6.85
2022-10-19T06:57:35.454Z,7.88
2022-10-19T07:00:02.716Z,6.28
2022-10-19T07:02:29.412Z,6.60
2022-10-19T07:04:56.092Z,7.78
2022-10-19T07:07:22.924Z,7.03
2022-10-19T07:09:49.748Z,6.53
2022-10-19T07:12:16.579Z,6.90
2022-10-19T07:14:43.364Z,7.15
2022-10-19T07:17:11.899Z,6.60
2022-10-19T07:19:38.708Z,5.93
2022-10-19T07:22:05.621Z,7.65
2022-10-19T07:24:32.269Z,7.50
2022-10-19T07:26:59.057Z,6.57
2022-10-19T07:29:25.879Z,7.78
2022-10-19T07:31:53.339Z,7.78
2022-10-19T07:34:20.025Z,7.75
2022-10-19T07:36:48.131Z,7.15
2022-10-19T07:39:18.920Z,6.40
2022-10-19T07:41:45.903Z,6.38
2022-10-19T07:44:15.593Z,6.28
2022-10-19T07:46:43.012Z,6.80
2022-10-19T07:49:16.188Z,5.95
2022-10-19T07:51:43.394Z,6.30
2022-10-19T07:54:10.141Z,6.78
2022-10-19T07:56:37.348Z,6.75
2022-10-19T07:59:05.365Z,8.95
2022-10-19T08:01:35.311Z,6.20
2022-10-19T08:06:49.407Z,7.07
2022-10-19T08:09:39.953Z,7.15
2022-10-19T08:12:04.891Z,6.88
2022-10-19T08:14:32.541Z,6.88
2022-10-19T08:16:59.811Z,7.25
2022-10-19T08:19:26.553Z,6.82
2022-10-19T08:21:53.438Z,6.30
2022-10-19T08:24:21.084Z,7.47
2022-10-19T08:26:51.017Z,7.13
2022-10-19T08:29:20.071Z,6.88
2022-10-19T08:31:47.811Z,8.85
2022-10-19T08:34:15.434Z,12.13
2022-10-19T08:39:14.430Z,12.65
2022-10-19T08:41:41.165Z,8.38
2022-10-19T08:44:30.472Z,9.10
2022-10-19T08:47:03.433Z,13.43
2022-10-19T08:49:32.396Z,8.43
2022-10-19T08:52:02.904Z,8.30
2022-10-19T08:54:56.025Z,6.97
2022-10-19T08:57:31.888Z,9.50
2022-10-19T09:03:00.317Z,7.88
2022-10-19T09:05:46.488Z,6.95
2022-10-19T09:08:17.560Z,7.47
2022-10-19T09:10:48.920Z,8.43
2022-10-19T09:14:03.754Z,7.75
2022-10-19T09:16:30.397Z,11.70
2022-10-19T09:18:57.162Z,9.40
2022-10-19T09:21:37.978Z,8.23
2022-10-19T09:24:27.639Z,7.85
2022-10-19T09:26:58.602Z,7.38
2022-10-19T09:29:34.289Z,8.15
2022-10-19T09:32:09.737Z,6.97
2022-10-19T09:34:48.107Z,7.68
2022-10-19T09:37:23.231Z,7.68
2022-10-19T09:39:54.907Z,7.82
2022-10-19T09:42:33.994Z,8.65
2022-10-19T09:45:11.695Z,9.60
2022-10-19T09:47:42.418Z,8.25
2022-10-19T09:50:24.677Z,9.40
2022-10-19T09:53:00.111Z,9.95
2022-10-19T09:55:28.846Z,8.45
2022-10-19T09:58:04.962Z,8.15
2022-10-19T10:03:01.089Z,8.68
2022-10-19T10:05:37.809Z,10.50
2022-10-19T10:08:12.268Z,12.02
2022-10-19T10:10:42.628Z,9.10
2022-10-19T10:13:21.790Z,9.85
2022-10-19T10:15:52.100Z,9.43
2022-10-19T10:18:19.330Z,8.15
2022-10-19T10:21:03.903Z,10.10
2022-10-19T10:23:36.236Z,7.82
2022-10-19T10:26:04.559Z,7.30
2022-10-19T10:28:31.793Z,7.50
2022-10-19T10:31:07.902Z,6.60
2022-10-19T10:33:45.151Z,7.97
2022-10-19T10:36:13.168Z,6.78
2022-10-19T10:38:49.005Z,7.43
2022-10-19T10:41:20.154Z,7.07
2022-10-19T10:44:02.385Z,6.80
2022-10-19T10:46:37.107Z,7.00
2022-10-19T10:49:06.810Z,5.80
2022-10-19T10:51:53.000Z,6.20
2022-10-19T10:54:22.991Z,5.97
2022-10-19T10:57:05.595Z,6.00
2022-10-19T10:59:56.575Z,5.88
2022-10-19T11:02:35.487Z,5.55
2022-10-19T11:05:12.391Z,6.03
2022-10-19T11:07:46.356Z,7.00
2022-10-19T11:10:24.786Z,6.38
2022-10-19T11:13:17.523Z,5.88
2022-10-19T11:16:04.988Z,7.55
2022-10-19T11:18:31.708Z,6.57
2022-10-19T11:21:20.570Z,6.00
2022-10-19T11:24:09.135Z,5.28
2022-10-19T11:26:53.881Z,6.32
2022-10-19T11:29:39.379Z,5.55
2022-10-19T11:32:28.412Z,5.50
2022-10-19T11:35:14.058Z,5.57
2022-10-19T11:38:18.781Z,5.80
2022-10-19T11:41:17.827Z,5.63
2022-10-19T11:44:15.731Z,5.65
2022-10-19T11:46:48.752Z,6.40
2022-10-19T11:49:15.447Z,6.47
2022-10-19T11:51:57.402Z,5.50
2022-10-19T11:54:46.041Z,5.80
2022-10-19T11:57:53.278Z,5.13
2022-10-19T12:00:38.222Z,5.63
2022-10-19T12:03:24.230Z,5.95
2022-10-19T12:06:03.972Z,5.65
2022-10-19T12:08:44.974Z,4.68
2022-10-19T12:11:34.731Z,5.40
2022-10-19T12:14:05.103Z,5.25
2022-10-19T12:16:45.958Z,4.65
2022-10-19T12:19:21.627Z,5.53
2022-10-19T12:21:50.624Z,5.55
2022-10-19T12:24:24.507Z,4.88
2022-10-19T12:26:53.747Z,4.95
2022-10-19T12:29:28.614Z,4.90
2022-10-19T12:31:57.596Z,5.63
2022-10-19T12:34:45.256Z,4.43
2022-10-19T12:37:43.214Z,5.05
2022-10-19T12:40:39.451Z,4.70
2022-10-19T12:43:12.287Z,4.68
2022-10-19T12:46:06.373Z,4.78
2022-10-19T12:48:36.269Z,4.70
2022-10-19T12:51:12.295Z,4.90
2022-10-19T12:56:22.208Z,6.15
2022-10-19T12:59:01.504Z,3.85
2022-10-19T13:01:34.099Z,3.90
2022-10-19T13:04:20.505Z,4.20
2022-10-19T13:07:01.410Z,5.05
2022-10-19T13:09:43.848Z,4.82
2022-10-19T13:12:21.279Z,3.95
2022-10-19T13:15:02.676Z,4.47
2022-10-19T13:17:40.864Z,4.72
2022-10-19T13:20:13.891Z,4.72
2022-10-19T13:23:10.023Z,4.22
2022-10-19T13:25:37.496Z,5.22
2022-10-19T13:28:06.910Z,4.47
2022-10-19T13:30:38.872Z,7.18
2022-10-19T13:33:33.178Z,4.95
2022-10-19T13:35:59.916Z,4.72
2022-10-19T13:38:46.966Z,4.72
2022-10-19T13:41:36.730Z,5.15
2022-10-19T13:44:16.991Z,5.00
2022-10-19T13:47:11.474Z,5.50
2022-10-19T13:50:06.803Z,4.55
2022-10-19T13:53:01.192Z,4.15
2022-10-19T13:55:56.843Z,4.85
2022-10-19T13:59:01.520Z,4.50
2022-10-19T14:02:12.922Z,4.65
2022-10-19T14:04:52.134Z,4.25
2022-10-19T14:07:38.672Z,4.03
2022-10-19T14:12:44.007Z,4.80
2022-10-19T14:15:27.678Z,4.25
2022-10-19T14:17:55.485Z,5.07
2022-10-19T14:20:38.452Z,5.88
2022-10-19T14:23:24.441Z,6.20
2022-10-19T14:26:13.821Z,7.30
2022-10-19T14:28:42.951Z,6.40
2022-10-19T14:31:17.392Z,5.97
2022-10-19T14:33:49.887Z,5.20
2022-10-19T14:36:31.944Z,6.30
2022-10-19T14:38:58.893Z,7.70
2022-10-19T14:41:28.715Z,5.15
2022-10-19T14:43:57.054Z,5.93
2022-10-19T14:46:32.910Z,5.82
2022-10-19T14:49:06.300Z,5.63
2022-10-19T14:51:37.487Z,5.82
2022-10-19T14:54:23.483Z,5.60
2022-10-19T14:57:05.332Z,5.13
2022-10-19T14:59:46.025Z,5.57
2022-10-19T15:02:22.359Z,5.13
2022-10-19T15:04:51.268Z,4.80
2022-10-19T15:07:26.148Z,5.45
2022-10-19T15:10:24.858Z,5.18
2022-10-19T15:12:57.422Z,4.97
2022-10-19T15:15:30.105Z,5.70
2022-10-19T15:17:59.938Z,5.15
2022-10-19T15:20:49.167Z,4.68
2022-10-19T15:23:32.280Z,4.97
2022-10-19T15:26:16.969Z,4.75
2022-10-19T15:28:45.594Z,5.00
2022-10-19T15:31:27.218Z,7.53
2022-10-19T15:34:04.144Z,5.13
2022-10-19T15:36:31.888Z,6.70
2022-10-19T15:39:06.380Z,5.80
2022-10-19T15:41:45.343Z,8.45
2022-10-19T15:44:42.102Z,6.45
2022-10-19T15:47:19.299Z,4.68
2022-10-19T15:49:51.492Z,5.18
2022-10-19T15:52:20.341Z,7.35
2022-10-19T15:54:51.605Z,6.43
2022-10-19T15:57:36.925Z,6.13
2022-10-19T16:00:15.860Z,6.47
2022-10-19T16:02:42.568Z,6.75
2022-10-19T16:05:09.586Z,4.68
2022-10-19T16:07:39.117Z,5.68
2022-10-19T16:10:06.697Z,4.53
2022-10-19T16:12:33.447Z,3.97
2022-10-19T16:15:00.151Z,4.32
2022-10-19T16:17:27.437Z,4.00
2022-10-19T16:19:54.123Z,5.13
2022-10-19T16:22:20.980Z,5.28
2022-10-19T16:24:47.710Z,5.82
2022-10-19T16:27:16.139Z,5.13
2022-10-19T16:29:44.325Z,5.05
2022-10-19T16:32:10.994Z,4.57
2022-10-19T16:34:38.012Z,5.97
2022-10-19T16:37:06.902Z,6.15
2022-10-19T16:39:34.408Z,4.00
2022-10-19T16:42:01.108Z,4.22
2022-10-19T16:44:27.822Z,3.75
2022-10-19T16:46:56.631Z,3.30
2022-10-19T16:49:23.551Z,5.57
2022-10-19T16:51:53.271Z,4.75
2022-10-19T16:54:23.450Z,6.35
2022-10-19T16:56:50.472Z,4.88
2022-10-19T16:59:18.977Z,5.10
2022-10-19T17:01:46.675Z,4.53
2022-10-19T17:04:15.662Z,6.05
2022-10-19T17:06:42.716Z,4.50
2022-10-19T17:11:56.396Z,6.03
2022-10-19T17:14:23.221Z,3.15
2022-10-19T17:16:49.933Z,3.85
2022-10-19T17:19:16.659Z,3.80
2022-10-19T17:21:43.403Z,2.72
2022-10-19T17:24:21.104Z,4.80
2022-10-19T17:26:50.297Z,6.55
2022-10-19T17:29:17.140Z,6.82
2022-10-19T17:31:43.877Z,3.10
2022-10-19T17:34:11.544Z,4.38
2022-10-19T17:39:25.842Z,4.97
2022-10-19T17:41:57.390Z,3.65
2022-10-19T17:44:24.083Z,4.00
2022-10-19T17:46:50.835Z,4.65
2022-10-19T17:49:18.728Z,6.20
2022-10-19T17:51:45.436Z,6.90
2022-10-19T17:54:13.612Z,4.57
2022-10-19T17:56:41.137Z,4.95
2022-10-19T17:59:09.182Z,5.07
2022-10-19T18:01:37.070Z,4.05
2022-10-19T18:04:04.185Z,4.28
2022-10-19T18:06:33.080Z,5.10
2022-10-19T18:09:01.427Z,4.60
2022-10-19T18:11:29.478Z,5.00
2022-10-19T18:13:58.976Z,4.80
2022-10-19T18:16:31.494Z,4.25
2022-10-19T18:19:00.201Z,5.22
2022-10-19T18:21:32.714Z,4.63
2022-10-19T18:24:01.450Z,4.05
2022-10-19T18:26:30.974Z,5.25
2022-10-19T18:28:59.184Z,4.93
2022-10-19T18:31:30.673Z,4.80
2022-10-19T18:34:00.037Z,5.20
2022-10-19T18:36:26.885Z,5.30
2022-10-19T18:38:55.845Z,5.25
2022-10-19T18:41:23.306Z,3.97
2022-10-19T18:43:54.947Z,4.10
2022-10-19T18:46:23.571Z,4.10
2022-10-19T18:48:50.285Z,3.70
2022-10-19T18:51:18.362Z,4.30
2022-10-19T18:53:46.152Z,3.95
2022-10-19T18:56:15.671Z,4.55
2022-10-19T18:58:43.102Z,4.15
2022-10-19T19:01:13.992Z,3.92
2022-10-19T19:03:43.031Z,4.05
2022-10-19T19:06:13.033Z,3.65
2022-10-19T19:08:40.013Z,3.78
2022-10-19T19:11:28.765Z,4.38
2022-10-19T19:14:03.829Z,3.78
2022-10-19T19:16:33.981Z,4.22
2022-10-19T19:19:00.910Z,4.00
2022-10-19T19:21:29.436Z,3.83
2022-10-19T19:24:01.988Z,3.80
2022-10-19T19:26:33.012Z,3.20
2022-10-19T19:29:00.480Z,4.57
2022-10-19T19:31:27.240Z,3.92
2022-10-19T19:33:54.103Z,3.85
2022-10-19T19:36:20.962Z,4.07
2022-10-19T19:38:50.538Z,4.60
2022-10-19T19:41:17.598Z,4.28
2022-10-19T19:43:44.599Z,4.38
2022-10-19T19:46:14.104Z,4.50
2022-10-19T19:48:43.196Z,3.83
2022-10-19T19:51:12.803Z,4.18
2022-10-19T19:53:39.968Z,4.70
2022-10-19T19:56:07.846Z,5.13
2022-10-19T19:58:35.170Z,4.65
2022-10-19T20:01:13.705Z,5.25
2022-10-19T20:03:41.154Z,5.00
2022-10-19T20:06:08.313Z,5.18
2022-10-19T20:08:36.339Z,5.43
2022-10-19T20:11:08.531Z,5.47
2022-10-19T20:13:35.770Z,5.25
2022-10-19T20:16:21.774Z,5.10
2022-10-19T20:18:52.999Z,4.32
2022-10-19T20:21:23.502Z,5.25
2022-10-19T20:23:50.500Z,5.22
2022-10-19T20:26:18.943Z,5.22
2022-10-19T20:28:46.848Z,4.82
2022-10-19T20:31:14.419Z,5.75
2022-10-19T20:33:42.757Z,4.70
2022-10-19T20:36:12.110Z,4.95
2022-10-19T20:38:39.952Z,4.97
2022-10-19T20:41:09.489Z,4.97
2022-10-19T20:43:37.327Z,5.68
2022-10-19T20:46:04.863Z,5.57
2022-10-19T20:48:32.231Z,5.25
2022-10-19T20:51:21.169Z,5.72
2022-10-19T20:53:50.316Z,5.05
2022-10-19T20:56:23.517Z,5.28
2022-10-19T20:58:58.830Z,5.45
2022-10-19T21:01:27.470Z,4.57
2022-10-19T21:03:56.609Z,4.50
2022-10-19T21:06:25.939Z,5.22
2022-10-19T21:08:53.378Z,5.75
2022-10-19T21:11:22.776Z,5.47
2022-10-19T21:13:53.723Z,5.53
2022-10-19T21:16:22.165Z,5.10
2022-10-19T21:18:50.104Z,5.50
2022-10-19T21:21:20.340Z,5.82
2022-10-19T21:23:50.259Z,5.50
2022-10-19T21:26:17.855Z,5.93
2022-10-19T21:28:50.076Z,4.93
2022-10-19T21:31:17.795Z,5.05
2022-10-19T21:33:45.020Z,5.40
2022-10-19T21:36:13.521Z,4.65
2022-10-19T21:38:41.474Z,5.30
2022-10-19T21:41:16.069Z,5.60
2022-10-19T21:43:43.136Z,6.20
2022-10-19T21:46:15.201Z,5.65
2022-10-19T21:48:41.984Z,6.35
2022-10-19T21:51:32.649Z,6.80
2022-10-19T21:53:59.768Z,4.78
2022-10-19T21:56:26.668Z,4.70
2022-10-19T21:58:54.409Z,4.75
2022-10-19T22:01:24.001Z,5.78
2022-10-19T22:03:58.531Z,5.35
2022-10-19T22:06:27.745Z,4.68
2022-10-19T22:08:55.256Z,5.15
2022-10-19T22:11:22.547Z,4.75
2022-10-19T22:13:52.880Z,5.55
2022-10-19T22:16:20.526Z,4.25
2022-10-19T22:18:48.336Z,4.50
2022-10-19T22:21:20.780Z,4.30
2022-10-19T22:23:53.065Z,4.43
2022-10-19T22:26:22.636Z,4.68
2022-10-19T22:28:49.556Z,4.63
2022-10-19T22:31:16.430Z,4.55
2022-10-19T22:33:43.134Z,4.97
2022-10-19T22:36:11.326Z,3.95
2022-10-19T22:38:38.171Z,3.78
2022-10-19T22:41:04.924Z,4.55
2022-10-19T22:43:31.884Z,4.20
2022-10-19T22:45:58.615Z,4.38
2022-10-19T22:48:25.307Z,4.35
2022-10-19T22:50:56.009Z,4.18
2022-10-19T22:53:24.145Z,4.43
2022-10-19T22:55:50.948Z,4.25
2022-10-19T22:58:18.561Z,3.90
2022-10-19T23:00:45.549Z,4.25
2022-10-19T23:03:12.196Z,3.47
2022-10-19T23:05:38.858Z,3.97
2022-10-19T23:08:05.774Z,4.00
2022-10-19T23:10:32.672Z,4.25
2022-10-19T23:12:59.414Z,4.57
2022-10-19T23:15:26.167Z,5.00
2022-10-19T23:17:52.850Z,4.72
2022-10-19T23:20:19.622Z,4.50
2022-10-19T23:22:46.543Z,4.88
2022-10-19T23:25:13.232Z,4.50
2022-10-19T23:27:39.962Z,4.45
2022-10-19T23:30:07.244Z,5.80
2022-10-19T23:32:33.924Z,4.75
2022-10-19T23:35:00.622Z,4.85
2022-10-19T23:37:27.418Z,5.28
2022-10-19T23:39:54.093Z,4.72
2022-10-19T23:42:20.789Z,4.70
2022-10-19T23:44:47.512Z,4.40
2022-10-19T23:47:14.188Z,4.70
2022-10-19T23:49:40.870Z,4.40
2022-10-19T23:52:07.961Z,4.38
2022-10-19T23:54:34.725Z,4.70
2022-10-19T23:57:01.481Z,3.60
2022-10-19T23:59:28.246Z,4.63
